createdAt,value
2022-08-27T00:01:45.082Z,21.00
2022-08-27T00:04:13.335Z,21.00
2022-08-27T00:06:41.439Z,21.00
2022-08-27T00:09:09.626Z,21.00
2022-08-27T00:11:39.429Z,21.10
2022-08-27T00:14:07.588Z,21.10
2022-08-27T00:16:35.702Z,21.10
2022-08-27T00:19:04.085Z,21.10
2022-08-27T00:21:33.182Z,21.10
2022-08-27T00:24:01.545Z,21.00
2022-08-27T00:26:30.121Z,21.00
2022-08-27T00:28:59.800Z,21.10
2022-08-27T00:31:28.035Z,21.10
2022-08-27T00:33:57.279Z,21.10
2022-08-27T00:36:25.695Z,21.00
2022-08-27T00:38:54.435Z,21.00
2022-08-27T00:41:23.562Z,21.00
2022-08-27T00:43:54.433Z,21.10
2022-08-27T00:46:29.169Z,21.10
2022-08-27T00:49:01.432Z,21.00
2022-08-27T00:51:31.528Z,21.00
2022-08-27T00:54:02.531Z,21.00
2022-08-27T00:56:35.742Z,21.10
2022-08-27T00:59:04.962Z,21.10
2022-08-27T01:01:56.143Z,21.00
2022-08-27T01:04:24.480Z,21.10
2022-08-27T01:06:52.537Z,21.00
2022-08-27T01:09:20.760Z,21.00
2022-08-27T01:11:49.978Z,21.00
2022-08-27T01:14:19.930Z,21.00
2022-08-27T01:16:56.946Z,21.00
2022-08-27T01:19:31.357Z,21.00
2022-08-27T01:22:09.116Z,21.00
2022-08-27T01:24:41.908Z,21.00
2022-08-27T01:27:16.779Z,21.00
2022-08-27T01:29:45.222Z,21.00
2022-08-27T01:32:16.458Z,21.00
2022-08-27T01:34:45.126Z,21.00
2022-08-27T01:37:15.162Z,21.00
2022-08-27T01:39:46.057Z,20.90
2022-08-27T01:42:19.004Z,20.90
2022-08-27T01:44:50.345Z,20.90
2022-08-27T01:47:20.066Z,20.90
2022-08-27T01:49:48.560Z,20.90
2022-08-27T01:52:19.104Z,20.90
2022-08-27T01:54:50.874Z,20.80
2022-08-27T01:57:24.055Z,20.90
2022-08-27T01:59:56.208Z,20.90
2022-08-27T02:02:24.560Z,20.90
2022-08-27T02:04:52.745Z,20.90
2022-08-27T02:07:23.640Z,20.90
2022-08-27T02:09:53.202Z,20.90
2022-08-27T02:12:21.320Z,20.90
2022-08-27T02:14:49.408Z,20.90
2022-08-27T02:17:17.813Z,20.90
2022-08-27T02:19:45.895Z,20.90
2022-08-27T02:22:13.962Z,20.90
2022-08-27T02:24:42.171Z,20.90
2022-08-27T02:27:12.240Z,20.90
2022-08-27T02:29:40.234Z,20.80
2022-08-27T02:32:23.868Z,20.80
2022-08-27T02:34:57.211Z,20.70
2022-08-27T02:40:19.673Z,20.70
2022-08-27T02:42:49.191Z,20.70
2022-08-27T02:45:17.923Z,20.70
2022-08-27T02:47:46.051Z,20.60
2022-08-27T02:50:14.634Z,20.70
2022-08-27T02:52:46.285Z,20.70
2022-08-27T02:55:17.304Z,20.70
2022-08-27T02:57:45.686Z,20.70
2022-08-27T03:00:19.101Z,20.70
2022-08-27T03:02:47.227Z,20.70
2022-08-27T03:05:16.981Z,20.70
2022-08-27T03:07:45.300Z,20.70
2022-08-27T03:10:15.540Z,20.70
2022-08-27T03:12:44.312Z,20.70
2022-08-27T03:15:17.168Z,20.70
2022-08-27T03:18:02.923Z,20.70
2022-08-27T03:20:31.694Z,20.70
2022-08-27T03:22:59.906Z,20.70
2022-08-27T03:25:28.149Z,20.70
2022-08-27T03:27:56.165Z,20.70
2022-08-27T03:30:26.594Z,20.70
2022-08-27T03:32:54.895Z,20.70
2022-08-27T03:35:23.665Z,20.60
2022-08-27T03:37:51.752Z,20.60
2022-08-27T03:40:20.661Z,20.60
2022-08-27T03:42:48.815Z,20.60
2022-08-27T03:45:16.858Z,20.50
2022-08-27T03:47:46.301Z,20.50
2022-08-27T03:50:14.479Z,20.50
2022-08-27T03:52:42.503Z,20.50
2022-08-27T03:55:11.307Z,20.50
2022-08-27T03:57:40.135Z,20.50
2022-08-27T04:00:11.703Z,20.50
2022-08-27T04:02:39.948Z,20.50
2022-08-27T04:05:11.091Z,20.50
2022-08-27T04:07:39.778Z,20.40
2022-08-27T04:10:09.884Z,20.50
2022-08-27T04:12:38.162Z,20.40
2022-08-27T04:15:07.716Z,20.40
2022-08-27T04:17:36.239Z,20.40
2022-08-27T04:20:31.777Z,20.40
2022-08-27T04:22:55.332Z,20.40
2022-08-27T04:25:23.618Z,20.40
2022-08-27T04:27:51.687Z,20.40
2022-08-27T04:30:19.771Z,20.40
2022-08-27T04:32:47.826Z,20.40
2022-08-27T04:35:15.943Z,20.30
2022-08-27T04:37:44.089Z,20.30
2022-08-27T04:40:13.830Z,20.30
2022-08-27T04:42:42.324Z,20.30
2022-08-27T04:45:11.382Z,20.20
2022-08-27T04:47:39.461Z,20.20
2022-08-27T04:50:08.103Z,20.30
2022-08-27T04:52:40.751Z,20.30
2022-08-27T04:55:10.287Z,20.40
2022-08-27T04:57:39.703Z,20.40
2022-08-27T05:00:09.446Z,20.40
2022-08-27T05:02:37.451Z,20.40
2022-08-27T05:05:05.848Z,20.50
2022-08-27T05:07:33.892Z,20.40
2022-08-27T05:10:01.956Z,20.50
2022-08-27T05:12:29.978Z,20.50
2022-08-27T05:14:59.421Z,20.50
2022-08-27T05:17:31.259Z,20.60
2022-08-27T05:19:59.538Z,20.60
2022-08-27T05:22:27.768Z,20.60
2022-08-27T05:24:56.229Z,20.60
2022-08-27T05:27:24.909Z,20.70
2022-08-27T05:29:52.949Z,20.70
2022-08-27T05:32:22.454Z,20.70
2022-08-27T05:34:50.639Z,20.70
2022-08-27T05:37:18.695Z,20.60
2022-08-27T05:39:46.738Z,20.60
2022-08-27T05:42:14.886Z,20.60
2022-08-27T05:44:42.913Z,20.60
2022-08-27T05:47:11.469Z,20.60
2022-08-27T05:49:40.964Z,20.60
2022-08-27T05:52:13.501Z,20.60
2022-08-27T05:54:42.100Z,20.60
2022-08-27T05:57:10.156Z,20.50
2022-08-27T05:59:56.051Z,20.60
2022-08-27T06:02:24.389Z,20.60
2022-08-27T06:04:53.980Z,20.60
2022-08-27T06:07:22.133Z,20.60
2022-08-27T06:09:50.184Z,20.60
2022-08-27T06:12:18.261Z,20.60
2022-08-27T06:14:46.323Z,20.60
2022-08-27T06:17:14.371Z,20.60
2022-08-27T06:19:42.795Z,20.60
2022-08-27T06:22:12.590Z,20.60
2022-08-27T06:24:41.971Z,20.60
2022-08-27T06:27:12.795Z,20.70
2022-08-27T06:29:41.574Z,20.80
2022-08-27T06:32:10.554Z,20.80
2022-08-27T06:34:39.258Z,20.90
2022-08-27T06:37:07.816Z,20.90
2022-08-27T06:39:39.356Z,21.00
2022-08-27T06:42:11.534Z,21.00
2022-08-27T06:44:39.720Z,21.00
2022-08-27T06:47:07.987Z,21.00
2022-08-27T06:49:36.109Z,21.00
2022-08-27T06:52:04.618Z,21.10
2022-08-27T06:54:36.012Z,21.10
2022-08-27T06:57:04.044Z,21.10
2022-08-27T06:59:33.384Z,21.10
2022-08-27T07:02:01.450Z,21.10
2022-08-27T07:04:32.173Z,21.10
2022-08-27T07:07:01.347Z,21.20
2022-08-27T07:09:31.968Z,21.20
2022-08-27T07:12:01.826Z,21.20
2022-08-27T07:14:35.480Z,21.20
2022-08-27T07:17:09.792Z,21.20
2022-08-27T07:19:41.072Z,21.20
2022-08-27T07:22:10.862Z,21.20
2022-08-27T07:24:39.198Z,21.20
2022-08-27T07:27:09.057Z,21.30
2022-08-27T07:29:37.155Z,21.30
2022-08-27T07:32:05.503Z,21.30
2022-08-27T07:34:33.547Z,21.30
2022-08-27T07:37:01.605Z,21.30
2022-08-27T07:39:29.587Z,21.20
2022-08-27T07:42:15.461Z,21.20
2022-08-27T07:44:45.078Z,21.20
2022-08-27T07:47:13.664Z,21.30
2022-08-27T07:49:41.772Z,21.30
2022-08-27T07:52:09.868Z,21.40
2022-08-27T07:54:37.997Z,21.40
2022-08-27T07:57:06.182Z,21.50
2022-08-27T07:59:34.317Z,21.50
2022-08-27T08:02:04.163Z,21.60
2022-08-27T08:04:32.283Z,21.60
2022-08-27T08:07:00.390Z,21.50
2022-08-27T08:09:30.587Z,21.60
2022-08-27T08:11:58.646Z,21.50
2022-08-27T08:14:26.784Z,21.50
2022-08-27T08:16:54.890Z,21.40
2022-08-27T08:19:25.016Z,21.30
2022-08-27T08:21:59.405Z,21.20
2022-08-27T08:24:29.504Z,21.20
2022-08-27T08:26:57.560Z,21.20
2022-08-27T08:29:25.619Z,21.20
2022-08-27T08:31:53.700Z,21.20
2022-08-27T08:34:21.787Z,21.20
2022-08-27T08:36:54.941Z,21.20
2022-08-27T08:39:24.735Z,21.20
2022-08-27T08:41:55.128Z,21.20
2022-08-27T08:44:32.449Z,21.20
2022-08-27T08:47:05.702Z,21.20
2022-08-27T08:49:42.983Z,21.20
2022-08-27T08:52:30.950Z,21.30
2022-08-27T08:55:14.536Z,21.30
2022-08-27T08:57:48.604Z,21.40
2022-08-27T09:00:17.367Z,21.40
2022-08-27T09:02:52.285Z,21.40
2022-08-27T09:05:20.458Z,21.40
2022-08-27T09:08:28.913Z,21.40
2022-08-27T09:11:00.582Z,21.40
2022-08-27T09:13:33.682Z,21.40
2022-08-27T09:16:04.777Z,21.50
2022-08-27T09:18:35.163Z,21.50
2022-08-27T09:21:11.816Z,21.50
2022-08-27T09:23:49.195Z,21.60
2022-08-27T09:26:22.630Z,21.50
2022-08-27T09:29:14.007Z,21.50
2022-08-27T09:31:42.133Z,21.60
2022-08-27T09:34:10.663Z,21.60
2022-08-27T09:36:53.434Z,21.70
2022-08-27T09:39:29.834Z,21.70
2022-08-27T09:41:58.531Z,21.70
2022-08-27T09:44:26.756Z,21.70
2022-08-27T09:46:57.901Z,21.70
2022-08-27T09:49:26.940Z,21.70
2022-08-27T09:51:56.305Z,21.70
2022-08-27T09:54:45.416Z,21.70
2022-08-27T09:57:16.642Z,21.80
2022-08-27T09:59:53.514Z,21.90
2022-08-27T10:02:24.027Z,21.90
2022-08-27T10:04:53.713Z,22.00
2022-08-27T10:07:30.967Z,22.00
2022-08-27T10:10:07.876Z,22.00
2022-08-27T10:12:45.687Z,22.00
2022-08-27T10:15:15.653Z,22.10
2022-08-27T10:17:53.088Z,22.10
2022-08-27T10:20:30.873Z,22.10
2022-08-27T10:23:12.864Z,22.10
2022-08-27T10:25:51.270Z,22.10
2022-08-27T10:28:36.735Z,22.10
2022-08-27T10:31:16.207Z,22.10
2022-08-27T10:33:57.907Z,22.10
2022-08-27T10:36:37.938Z,22.00
2022-08-27T10:39:15.173Z,22.00
2022-08-27T10:41:56.612Z,22.00
2022-08-27T10:44:41.090Z,22.00
2022-08-27T10:47:23.198Z,21.90
2022-08-27T10:49:58.739Z,21.90
2022-08-27T10:52:29.882Z,22.00
2022-08-27T10:55:01.863Z,22.00
2022-08-27T10:58:01.158Z,21.90
2022-08-27T11:00:40.121Z,21.90
2022-08-27T11:03:13.839Z,21.90
2022-08-27T11:05:46.826Z,21.90
2022-08-27T11:08:20.323Z,22.00
2022-08-27T11:10:51.366Z,21.90
2022-08-27T11:13:28.676Z,22.00
2022-08-27T11:15:58.193Z,22.00
2022-08-27T11:18:37.782Z,22.20
2022-08-27T11:21:14.102Z,22.20
2022-08-27T11:23:47.641Z,22.30
2022-08-27T11:26:15.731Z,22.30
2022-08-27T11:28:48.725Z,22.40
2022-08-27T11:31:22.656Z,22.40
2022-08-27T11:33:58.545Z,22.50
2022-08-27T11:36:54.178Z,22.50
2022-08-27T11:39:37.698Z,22.50
2022-08-27T11:42:22.158Z,22.60
2022-08-27T11:44:57.459Z,22.70
2022-08-27T11:47:28.938Z,22.70
2022-08-27T11:49:59.210Z,22.80
2022-08-27T11:52:30.736Z,22.80
2022-08-27T11:55:14.507Z,22.80
2022-08-27T11:57:45.092Z,22.90
2022-08-27T12:00:20.118Z,23.10
2022-08-27T12:02:58.940Z,23.20
2022-08-27T12:05:36.191Z,23.40
2022-08-27T12:08:18.919Z,23.40
2022-08-27T12:11:05.766Z,23.30
2022-08-27T12:13:39.623Z,23.40
2022-08-27T12:16:23.586Z,23.40
2022-08-27T12:19:01.959Z,23.50
2022-08-27T12:21:43.227Z,23.50
2022-08-27T12:24:43.110Z,23.50
2022-08-27T12:27:35.533Z,23.50
2022-08-27T12:30:21.135Z,23.50
2022-08-27T12:32:52.591Z,23.50
2022-08-27T12:35:23.989Z,23.50
2022-08-27T12:37:56.870Z,23.60
2022-08-27T12:40:27.070Z,23.60
2022-08-27T12:43:07.265Z,23.70
2022-08-27T12:45:42.635Z,23.70
2022-08-27T12:48:12.212Z,23.70
2022-08-27T12:50:40.735Z,23.80
2022-08-27T12:53:31.352Z,23.80
2022-08-27T12:56:25.391Z,23.80
2022-08-27T12:58:59.260Z,23.80
2022-08-27T13:01:43.514Z,24.00
2022-08-27T13:04:21.777Z,24.10
2022-08-27T13:06:50.725Z,24.10
2022-08-27T13:09:27.929Z,24.10
2022-08-27T13:11:56.995Z,24.20
2022-08-27T13:14:26.871Z,24.10
2022-08-27T13:16:57.359Z,24.10
2022-08-27T13:19:30.650Z,24.00
2022-08-27T13:22:05.133Z,23.80
2022-08-27T13:24:35.353Z,23.70
2022-08-27T13:27:05.078Z,23.70
2022-08-27T13:29:33.690Z,23.70
2022-08-27T13:32:02.939Z,23.70
2022-08-27T13:34:37.043Z,23.70
2022-08-27T13:37:07.419Z,23.70
2022-08-27T13:39:36.771Z,23.60
2022-08-27T13:42:08.465Z,23.50
2022-08-27T13:44:38.597Z,23.60
2022-08-27T13:47:09.602Z,23.60
2022-08-27T13:49:41.538Z,23.50
2022-08-27T13:52:25.862Z,23.60
2022-08-27T13:55:00.191Z,23.50
2022-08-27T13:57:31.312Z,23.50
2022-08-27T14:00:11.138Z,23.50
2022-08-27T14:02:39.509Z,23.50
2022-08-27T14:05:12.692Z,23.40
2022-08-27T14:07:47.557Z,23.40
2022-08-27T14:10:30.862Z,23.40
2022-08-27T14:13:01.203Z,23.40
2022-08-27T14:15:33.669Z,23.40
2022-08-27T14:18:02.396Z,23.40
2022-08-27T14:20:31.818Z,23.50
2022-08-27T14:23:00.009Z,23.50
2022-08-27T14:25:28.624Z,23.50
2022-08-27T14:27:57.743Z,23.50
2022-08-27T14:30:29.234Z,23.50
2022-08-27T14:32:58.941Z,23.50
2022-08-27T14:35:28.663Z,23.50
2022-08-27T14:40:58.805Z,23.50
2022-08-27T14:43:27.251Z,23.50
2022-08-27T14:45:56.966Z,23.50
2022-08-27T14:48:28.771Z,23.50
2022-08-27T14:50:58.056Z,23.50
2022-08-27T14:53:27.818Z,23.50
2022-08-27T14:55:58.791Z,23.40
2022-08-27T14:58:26.954Z,23.50
2022-08-27T15:00:56.132Z,23.50
2022-08-27T15:03:25.454Z,23.50
2022-08-27T15:05:55.848Z,23.50
2022-08-27T15:08:27.676Z,23.50
2022-08-27T15:10:59.088Z,23.60
2022-08-27T15:13:27.429Z,23.60
2022-08-27T15:15:55.972Z,23.60
2022-08-27T15:18:24.125Z,23.60
2022-08-27T15:20:52.230Z,23.60
2022-08-27T15:23:20.422Z,23.60
2022-08-27T15:25:49.653Z,23.60
2022-08-27T15:28:19.071Z,23.60
2022-08-27T15:30:47.180Z,23.50
2022-08-27T15:33:15.640Z,23.60
2022-08-27T15:35:43.674Z,23.60
2022-08-27T15:38:11.899Z,23.60
2022-08-27T15:40:40.123Z,23.60
2022-08-27T15:43:11.029Z,23.60
2022-08-27T15:45:40.458Z,23.60
2022-08-27T15:48:08.500Z,23.60
2022-08-27T15:50:36.725Z,23.70
2022-08-27T15:53:07.641Z,23.70
2022-08-27T15:55:39.962Z,23.80
2022-08-27T15:58:08.785Z,23.90
2022-08-27T16:00:38.178Z,24.00
2022-08-27T16:03:11.256Z,24.10
2022-08-27T16:05:41.716Z,24.10
2022-08-27T16:08:10.471Z,24.10
2022-08-27T16:10:39.171Z,24.10
2022-08-27T16:13:07.174Z,24.10
2022-08-27T16:15:39.405Z,24.10
2022-08-27T16:18:10.873Z,24.10
2022-08-27T16:20:39.392Z,24.10
2022-08-27T16:23:08.164Z,24.00
2022-08-27T16:25:36.270Z,24.10
2022-08-27T16:28:04.816Z,24.00
2022-08-27T16:30:33.045Z,24.00
2022-08-27T16:33:01.380Z,24.00
2022-08-27T16:35:31.762Z,24.00
2022-08-27T16:37:59.800Z,23.90
2022-08-27T16:40:28.008Z,23.90
2022-08-27T16:42:56.095Z,23.80
2022-08-27T16:45:24.866Z,23.70
2022-08-27T16:48:10.594Z,23.70
2022-08-27T16:50:41.337Z,23.60
2022-08-27T16:53:13.224Z,23.60
2022-08-27T16:55:42.785Z,23.60
2022-08-27T16:58:17.536Z,23.40
2022-08-27T17:00:47.168Z,23.40
2022-08-27T17:03:15.356Z,23.40
2022-08-27T17:05:44.766Z,23.30
2022-08-27T17:08:13.404Z,23.30
2022-08-27T17:10:45.674Z,23.30
2022-08-27T17:13:15.549Z,23.20
2022-08-27T17:15:44.197Z,23.20
2022-08-27T17:18:12.926Z,23.20
2022-08-27T17:20:41.814Z,23.10
2022-08-27T17:23:18.124Z,23.10
2022-08-27T17:25:46.136Z,23.00
2022-08-27T17:28:14.324Z,22.90
2022-08-27T17:30:42.597Z,22.90
2022-08-27T17:33:13.003Z,22.90
2022-08-27T17:35:41.748Z,22.80
2022-08-27T17:38:11.389Z,22.80
2022-08-27T17:40:39.939Z,22.80
2022-08-27T17:43:08.070Z,22.70
2022-08-27T17:45:36.250Z,22.70
2022-08-27T17:48:06.073Z,22.60
2022-08-27T17:50:43.067Z,22.50
2022-08-27T17:53:13.728Z,22.40
2022-08-27T17:55:42.634Z,22.30
2022-08-27T17:58:11.283Z,22.20
2022-08-27T18:00:40.736Z,22.10
2022-08-27T18:03:17.831Z,22.10
2022-08-27T18:05:48.020Z,22.00
2022-08-27T18:08:17.520Z,21.90
2022-08-27T18:10:49.154Z,21.80
2022-08-27T18:13:18.367Z,21.80
2022-08-27T18:15:47.039Z,21.80
2022-08-27T18:18:19.395Z,21.80
2022-08-27T18:20:48.241Z,21.80
2022-08-27T18:23:21.342Z,21.90
2022-08-27T18:25:49.395Z,21.80
2022-08-27T18:28:19.897Z,21.90
2022-08-27T18:30:48.551Z,21.90
2022-08-27T18:33:17.288Z,21.90
2022-08-27T18:35:45.552Z,21.90
2022-08-27T18:38:14.003Z,22.00
2022-08-27T18:40:46.792Z,22.00
2022-08-27T18:43:16.828Z,22.00
2022-08-27T18:45:45.941Z,22.10
2022-08-27T18:48:16.936Z,22.10
2022-08-27T18:50:48.834Z,22.10
2022-08-27T18:53:19.963Z,22.00
2022-08-27T18:55:50.327Z,22.00
2022-08-27T18:58:19.740Z,22.00
2022-08-27T19:00:52.069Z,21.80
2022-08-27T19:03:24.633Z,21.80
2022-08-27T19:05:55.016Z,21.80
2022-08-27T19:08:24.555Z,21.80
2022-08-27T19:10:55.677Z,21.70
2022-08-27T19:13:23.969Z,21.70
2022-08-27T19:15:55.662Z,21.70
2022-08-27T19:18:26.621Z,21.70
2022-08-27T19:20:55.819Z,21.70
2022-08-27T19:23:24.668Z,21.70
2022-08-27T19:25:55.655Z,21.70
2022-08-27T19:28:27.869Z,21.70
2022-08-27T19:30:56.598Z,21.70
2022-08-27T19:33:25.269Z,21.70
2022-08-27T19:35:53.400Z,21.70
2022-08-27T19:38:22.624Z,21.70
2022-08-27T19:40:50.756Z,21.70
2022-08-27T19:43:20.261Z,21.70
2022-08-27T19:45:49.193Z,21.60
2022-08-27T19:48:17.589Z,21.60
2022-08-27T19:50:46.485Z,21.60
2022-08-27T19:53:16.588Z,21.60
2022-08-27T19:55:45.992Z,21.60
2022-08-27T19:58:16.222Z,21.60
2022-08-27T20:00:46.329Z,21.70
2022-08-27T20:03:15.217Z,21.70
2022-08-27T20:05:44.120Z,21.70
2022-08-27T20:08:12.861Z,21.60
2022-08-27T20:10:41.575Z,21.60
2022-08-27T20:13:09.739Z,21.60
2022-08-27T20:15:38.743Z,21.60
2022-08-27T20:18:10.261Z,21.60
2022-08-27T20:20:38.853Z,21.60
2022-08-27T20:23:06.983Z,21.60
2022-08-27T20:25:36.735Z,21.50
2022-08-27T20:28:28.237Z,21.50
2022-08-27T20:30:58.028Z,21.40
2022-08-27T20:33:27.593Z,21.30
2022-08-27T20:35:56.671Z,21.30
2022-08-27T20:40:59.655Z,21.20
2022-08-27T20:43:28.444Z,21.20
2022-08-27T20:45:56.602Z,21.30
2022-08-27T20:48:24.771Z,21.30
2022-08-27T20:50:55.854Z,21.30
2022-08-27T20:53:24.003Z,21.20
2022-08-27T20:55:51.998Z,21.20
2022-08-27T20:58:37.589Z,21.20
2022-08-27T21:01:05.748Z,21.10
2022-08-27T21:03:33.881Z,21.20
2022-08-27T21:06:03.283Z,21.20
2022-08-27T21:08:32.081Z,21.20
2022-08-27T21:11:00.575Z,21.20
2022-08-27T21:13:30.158Z,21.20
2022-08-27T21:15:58.211Z,21.20
2022-08-27T21:18:29.512Z,21.20
2022-08-27T21:20:58.525Z,21.10
2022-08-27T21:23:29.023Z,21.10
2022-08-27T21:25:57.333Z,21.20
2022-08-27T21:28:25.417Z,21.20
2022-08-27T21:30:53.650Z,21.20
2022-08-27T21:33:21.825Z,21.20
2022-08-27T21:35:49.995Z,21.10
2022-08-27T21:38:18.138Z,21.10
2022-08-27T21:40:47.873Z,21.10
2022-08-27T21:43:15.872Z,21.00
2022-08-27T21:45:44.466Z,21.00
2022-08-27T21:48:13.463Z,21.00
2022-08-27T21:50:41.655Z,20.90
2022-08-27T21:53:09.709Z,20.90
2022-08-27T21:55:38.497Z,20.90
2022-08-27T21:58:07.977Z,20.90
2022-08-27T22:00:43.887Z,20.90
2022-08-27T22:03:15.012Z,20.90
2022-08-27T22:05:44.573Z,20.90
2022-08-27T22:08:15.121Z,20.90
2022-08-27T22:10:45.540Z,20.80
2022-08-27T22:13:15.470Z,20.80
2022-08-27T22:15:43.563Z,20.70
2022-08-27T22:18:12.193Z,20.70
2022-08-27T22:20:40.662Z,20.70
2022-08-27T22:23:10.889Z,20.60
2022-08-27T22:25:39.677Z,20.60
2022-08-27T22:28:07.685Z,20.50
2022-08-27T22:30:37.136Z,20.40
2022-08-27T22:33:05.708Z,20.30
2022-08-27T22:35:33.808Z,20.40
2022-08-27T22:38:02.041Z,20.30
2022-08-27T22:40:33.284Z,20.20
2022-08-27T22:43:02.255Z,20.20
2022-08-27T22:45:30.463Z,20.20
2022-08-27T22:47:59.889Z,20.10
2022-08-27T22:50:27.956Z,20.20
2022-08-27T22:52:56.035Z,20.20
2022-08-27T22:55:24.935Z,20.20
2022-08-27T22:57:55.830Z,20.20
2022-08-27T23:00:27.153Z,20.20
2022-08-27T23:02:55.765Z,20.30
2022-08-27T23:05:26.229Z,20.20
2022-08-27T23:07:54.799Z,20.20
2022-08-27T23:10:25.177Z,20.20
2022-08-27T23:12:54.178Z,20.10
2022-08-27T23:15:25.140Z,20.10
2022-08-27T23:17:53.535Z,20.10
2022-08-27T23:20:22.567Z,20.10
2022-08-27T23:22:52.817Z,20.20
2022-08-27T23:25:40.707Z,20.20
2022-08-27T23:28:14.703Z,20.20
2022-08-27T23:30:44.124Z,20.20
2022-08-27T23:33:13.769Z,20.10
2022-08-27T23:35:44.459Z,20.10
2022-08-27T23:38:14.077Z,20.10
2022-08-27T23:40:42.362Z,20.10
2022-08-27T23:43:10.754Z,20.10
2022-08-27T23:45:40.629Z,20.10
2022-08-27T23:48:09.243Z,20.20
2022-08-27T23:50:37.774Z,20.10
2022-08-27T23:53:07.448Z,20.00
2022-08-27T23:55:38.491Z,20.00
2022-08-27T23:58:07.725Z,20.00
